createdAt,value
2023-08-08T00:01:56.648Z,20.48
2023-08-08T00:04:27.040Z,20.44
2023-08-08T00:06:56.798Z,20.39
2023-08-08T00:09:26.319Z,20.36
2023-08-08T00:11:56.422Z,20.32
2023-08-08T00:14:26.651Z,20.31
2023-08-08T00:16:55.883Z,20.29
2023-08-08T00:19:25.946Z,20.27
2023-08-08T00:21:55.533Z,20.25
2023-08-08T00:24:24.911Z,20.21
2023-08-08T00:26:54.750Z,20.14
2023-08-08T00:29:23.939Z,20.10
2023-08-08T00:31:53.474Z,20.06
2023-08-08T00:34:22.580Z,20.03
2023-08-08T00:36:51.816Z,20.00
2023-08-08T00:39:21.273Z,19.97
2023-08-08T00:41:50.497Z,19.93
2023-08-08T00:44:20.180Z,19.91
2023-08-08T00:46:49.275Z,19.87
2023-08-08T00:49:18.745Z,19.82
2023-08-08T00:51:48.685Z,19.79
2023-08-08T00:54:20.009Z,19.75
2023-08-08T00:56:49.658Z,19.77
2023-08-08T00:59:18.976Z,19.76
2023-08-08T01:01:48.255Z,19.71
2023-08-08T01:04:19.041Z,19.70
2023-08-08T01:07:04.591Z,19.72
2023-08-08T01:09:39.781Z,19.71
2023-08-08T01:12:10.149Z,19.68
2023-08-08T01:14:39.248Z,19.65
2023-08-08T01:17:08.528Z,19.60
2023-08-08T01:19:38.106Z,19.57
2023-08-08T01:22:09.894Z,19.55
2023-08-08T01:24:40.111Z,19.48
2023-08-08T01:27:09.067Z,19.48
2023-08-08T01:29:39.321Z,19.50
2023-08-08T01:32:10.530Z,19.49
2023-08-08T01:34:39.370Z,19.48
2023-08-08T01:37:25.207Z,19.50
2023-08-08T01:39:55.877Z,19.49
2023-08-08T01:42:25.223Z,19.50
2023-08-08T01:44:55.137Z,19.51
2023-08-08T01:47:24.645Z,19.51
2023-08-08T01:49:53.801Z,19.50
2023-08-08T01:52:24.485Z,19.49
2023-08-08T01:54:53.719Z,19.51
2023-08-08T01:57:24.390Z,19.48
2023-08-08T01:59:54.058Z,19.47
2023-08-08T02:02:23.211Z,19.45
2023-08-08T02:04:52.512Z,19.43
2023-08-08T02:07:22.342Z,19.41
2023-08-08T02:09:52.409Z,19.44
2023-08-08T02:12:21.797Z,19.42
2023-08-08T02:14:50.970Z,19.39
2023-08-08T02:17:20.606Z,19.39
2023-08-08T02:19:50.118Z,19.37
2023-08-08T02:22:19.497Z,19.38
2023-08-08T02:24:48.997Z,19.37
2023-08-08T02:27:18.342Z,19.35
2023-08-08T02:29:48.216Z,19.34
2023-08-08T02:32:17.893Z,19.32
2023-08-08T02:34:46.844Z,19.30
2023-08-08T02:37:16.475Z,19.30
2023-08-08T02:39:46.099Z,19.29
2023-08-08T02:42:18.018Z,19.29
2023-08-08T02:44:47.488Z,19.28
2023-08-08T02:47:16.474Z,19.27
2023-08-08T02:49:45.515Z,19.25
2023-08-08T02:52:15.302Z,19.24
2023-08-08T02:54:44.696Z,19.23
2023-08-08T02:57:14.335Z,19.21
2023-08-08T02:59:44.320Z,19.21
2023-08-08T03:02:13.762Z,19.19
2023-08-08T03:04:43.047Z,19.17
2023-08-08T03:07:12.859Z,19.18
2023-08-08T03:09:42.459Z,19.20
2023-08-08T03:12:13.312Z,19.22
2023-08-08T03:14:42.713Z,19.24
2023-08-08T03:17:11.998Z,19.28
2023-08-08T03:19:41.160Z,19.32
2023-08-08T03:22:11.167Z,19.37
2023-08-08T03:24:41.024Z,19.45
2023-08-08T03:27:11.329Z,19.54
2023-08-08T03:29:40.754Z,19.64
2023-08-08T03:32:10.032Z,19.76
2023-08-08T03:34:39.121Z,19.84
2023-08-08T03:37:08.728Z,19.88
2023-08-08T03:39:38.571Z,19.87
2023-08-08T03:42:09.107Z,19.87
2023-08-08T03:44:38.431Z,19.86
2023-08-08T03:47:18.508Z,19.89
2023-08-08T03:49:49.221Z,19.87
2023-08-08T03:52:19.839Z,19.87
2023-08-08T03:54:49.080Z,19.92
2023-08-08T03:57:18.266Z,19.98
2023-08-08T03:59:48.036Z,20.08
2023-08-08T04:02:17.535Z,20.27
2023-08-08T04:04:46.556Z,20.48
2023-08-08T04:07:15.710Z,20.64
2023-08-08T04:09:45.354Z,20.80
2023-08-08T04:12:14.501Z,20.97
2023-08-08T04:14:43.941Z,21.11
2023-08-08T04:17:13.535Z,21.32
2023-08-08T04:19:43.211Z,21.42
2023-08-08T04:22:13.020Z,21.33
2023-08-08T04:24:42.358Z,21.23
2023-08-08T04:27:12.459Z,21.16
2023-08-08T04:29:42.449Z,21.10
2023-08-08T04:32:12.315Z,21.05
2023-08-08T04:34:41.946Z,20.99
2023-08-08T04:37:11.736Z,20.94
2023-08-08T04:39:41.630Z,20.91
2023-08-08T04:42:11.040Z,20.87
2023-08-08T04:44:40.694Z,20.84
2023-08-08T04:47:10.502Z,20.80
2023-08-08T04:49:40.419Z,20.80
2023-08-08T04:52:10.006Z,20.77
2023-08-08T04:54:39.965Z,20.77
2023-08-08T04:57:10.185Z,20.77
2023-08-08T04:59:40.046Z,20.74
2023-08-08T05:02:10.144Z,20.71
2023-08-08T05:04:39.684Z,20.71
2023-08-08T05:07:09.353Z,20.71
2023-08-08T05:09:38.883Z,20.70
2023-08-08T05:12:10.669Z,20.70
2023-08-08T05:14:40.649Z,20.73
2023-08-08T05:17:10.188Z,20.80
2023-08-08T05:19:40.171Z,20.92
2023-08-08T05:22:09.936Z,21.02
2023-08-08T05:24:39.782Z,21.05
2023-08-08T05:27:09.770Z,21.09
2023-08-08T05:29:40.529Z,21.25
2023-08-08T05:32:10.700Z,21.32
2023-08-08T05:34:40.440Z,21.36
2023-08-08T05:37:16.725Z,21.39
2023-08-08T05:39:47.167Z,21.44
2023-08-08T05:42:16.856Z,21.46
2023-08-08T05:44:46.813Z,21.49
2023-08-08T05:47:16.739Z,21.56
2023-08-08T05:49:46.266Z,21.61
2023-08-08T05:52:15.893Z,21.64
2023-08-08T05:54:45.782Z,21.65
2023-08-08T05:57:15.526Z,21.68
2023-08-08T05:59:46.784Z,21.73
2023-08-08T06:02:16.517Z,21.78
2023-08-08T06:04:47.300Z,21.82
2023-08-08T06:07:16.699Z,21.86
2023-08-08T06:09:46.734Z,21.90
2023-08-08T06:12:16.365Z,21.92
2023-08-08T06:14:46.100Z,21.96
2023-08-08T06:17:16.680Z,21.96
2023-08-08T06:19:47.179Z,22.00
2023-08-08T06:22:16.990Z,22.04
2023-08-08T06:24:46.695Z,22.08
2023-08-08T06:27:16.501Z,22.13
2023-08-08T06:29:46.304Z,22.29
2023-08-08T06:32:16.071Z,22.45
2023-08-08T06:34:46.181Z,22.57
2023-08-08T06:37:16.066Z,22.66
2023-08-08T06:39:46.106Z,22.74
2023-08-08T06:42:16.541Z,22.75
2023-08-08T06:44:56.413Z,22.77
2023-08-08T06:47:26.366Z,22.83
2023-08-08T06:49:56.698Z,23.05
2023-08-08T06:52:26.876Z,23.36
2023-08-08T06:54:57.327Z,23.75
2023-08-08T06:57:27.344Z,24.16
2023-08-08T06:59:57.442Z,24.51
2023-08-08T07:02:27.601Z,24.75
2023-08-08T07:04:57.904Z,24.90
2023-08-08T07:07:28.184Z,24.99
2023-08-08T07:09:58.186Z,25.15
2023-08-08T07:12:28.175Z,25.31
2023-08-08T07:14:58.483Z,25.45
2023-08-08T07:17:28.265Z,25.60
2023-08-08T07:19:58.762Z,25.65
2023-08-08T07:22:28.946Z,25.67
2023-08-08T07:24:59.291Z,25.71
2023-08-08T07:27:29.760Z,25.71
2023-08-08T07:30:01.223Z,25.79
2023-08-08T07:32:35.024Z,25.94
2023-08-08T07:35:07.615Z,25.99
2023-08-08T07:37:38.140Z,26.04
2023-08-08T07:40:37.252Z,26.05
2023-08-08T07:43:07.059Z,26.13
2023-08-08T07:45:37.422Z,26.25
2023-08-08T07:48:08.623Z,26.37
2023-08-08T07:50:38.492Z,26.57
2023-08-08T07:53:08.659Z,26.73
2023-08-08T07:55:38.619Z,26.90
2023-08-08T07:58:08.541Z,27.05
2023-08-08T08:00:40.179Z,27.14
2023-08-08T08:03:10.338Z,27.26
2023-08-08T08:05:40.337Z,27.44
2023-08-08T08:08:10.708Z,27.64
2023-08-08T08:10:40.690Z,27.73
2023-08-08T08:13:10.574Z,27.79
2023-08-08T08:15:41.138Z,27.88
2023-08-08T08:18:10.973Z,28.03
2023-08-08T08:20:41.337Z,28.14
2023-08-08T08:23:11.418Z,28.26
2023-08-08T08:25:41.565Z,28.42
2023-08-08T08:28:11.537Z,28.61
2023-08-08T08:30:41.269Z,28.81
2023-08-08T08:33:12.291Z,28.97
2023-08-08T08:35:42.200Z,29.20
2023-08-08T08:38:13.088Z,29.30
2023-08-08T08:40:44.240Z,29.22
2023-08-08T08:43:13.934Z,29.12
2023-08-08T08:45:43.391Z,28.91
2023-08-08T08:48:13.553Z,28.58
2023-08-08T08:50:43.895Z,28.39
2023-08-08T08:53:14.196Z,28.21
2023-08-08T08:55:44.404Z,28.05
2023-08-08T08:58:15.412Z,27.89
2023-08-08T09:00:47.566Z,27.74
2023-08-08T09:03:18.003Z,27.67
2023-08-08T09:05:47.786Z,27.71
2023-08-08T09:08:17.616Z,27.63
2023-08-08T09:10:47.905Z,27.51
2023-08-08T09:13:17.911Z,27.42
2023-08-08T09:15:49.082Z,27.36
2023-08-08T09:18:19.789Z,27.32
2023-08-08T09:20:51.355Z,27.36
2023-08-08T09:23:21.557Z,27.38
2023-08-08T09:25:51.363Z,27.51
2023-08-08T09:28:21.561Z,27.62
2023-08-08T09:30:51.418Z,27.78
2023-08-08T09:33:21.700Z,27.78
2023-08-08T09:35:51.795Z,27.85
2023-08-08T09:38:20.750Z,27.89
2023-08-08T09:40:51.576Z,27.91
2023-08-08T09:43:21.561Z,27.89
2023-08-08T09:45:51.762Z,27.95
2023-08-08T09:48:21.848Z,27.99
2023-08-08T09:50:51.653Z,28.03
2023-08-08T09:53:21.935Z,27.96
2023-08-08T09:55:52.000Z,27.84
2023-08-08T09:58:21.811Z,27.76
2023-08-08T10:01:11.347Z,27.59
2023-08-08T10:03:41.125Z,27.49
2023-08-08T10:06:11.568Z,27.61
2023-08-08T10:08:41.059Z,27.73
2023-08-08T10:11:12.213Z,27.71
2023-08-08T10:13:49.114Z,27.55
2023-08-08T10:16:20.464Z,27.40
2023-08-08T10:19:01.010Z,27.26
2023-08-08T10:21:34.639Z,27.17
2023-08-08T10:24:09.262Z,27.22
2023-08-08T10:27:03.615Z,27.26
2023-08-08T10:29:35.090Z,27.22
2023-08-08T10:32:05.515Z,27.22
2023-08-08T10:34:48.987Z,27.16
2023-08-08T10:37:19.967Z,27.25
2023-08-08T10:39:57.167Z,27.43
2023-08-08T10:42:29.016Z,27.48
2023-08-08T10:45:00.168Z,27.54
2023-08-08T10:47:37.696Z,27.49
2023-08-08T10:50:12.932Z,27.61
2023-08-08T10:52:48.443Z,27.63
2023-08-08T10:55:22.209Z,27.75
2023-08-08T10:58:19.736Z,27.99
2023-08-08T11:00:49.474Z,28.24
2023-08-08T11:03:18.670Z,28.29
2023-08-08T11:05:51.626Z,28.36
2023-08-08T11:08:23.174Z,28.40
2023-08-08T11:10:54.766Z,28.30
2023-08-08T11:13:24.459Z,28.31
2023-08-08T11:15:54.121Z,28.45
2023-08-08T11:18:24.203Z,28.69
2023-08-08T11:20:59.908Z,28.81
2023-08-08T11:23:39.802Z,28.80
2023-08-08T11:28:59.109Z,28.67
2023-08-08T11:31:28.922Z,28.65
2023-08-08T11:33:59.600Z,28.53
2023-08-08T11:36:32.691Z,28.49
2023-08-08T11:39:12.171Z,28.36
2023-08-08T11:41:42.454Z,28.23
2023-08-08T11:44:12.284Z,28.11
2023-08-08T11:46:48.390Z,28.08
2023-08-08T11:49:18.813Z,28.01
2023-08-08T11:51:48.879Z,27.94
2023-08-08T11:54:18.784Z,27.91
2023-08-08T11:56:48.684Z,27.90
2023-08-08T11:59:18.487Z,27.91
2023-08-08T12:01:47.955Z,27.92
2023-08-08T12:04:17.857Z,27.96
2023-08-08T12:06:47.398Z,27.88
2023-08-08T12:09:17.344Z,27.82
2023-08-08T12:11:48.487Z,27.80
2023-08-08T12:14:18.728Z,27.85
2023-08-08T12:16:49.445Z,27.88
2023-08-08T12:19:23.437Z,27.79
2023-08-08T12:21:53.629Z,27.75
2023-08-08T12:24:23.253Z,27.71
2023-08-08T12:26:53.181Z,27.77
2023-08-08T12:29:22.930Z,27.84
2023-08-08T12:31:52.703Z,27.86
2023-08-08T12:34:22.335Z,27.95
2023-08-08T12:36:51.777Z,28.03
2023-08-08T12:39:21.728Z,28.00
2023-08-08T12:41:52.777Z,27.96
2023-08-08T12:44:22.360Z,27.91
2023-08-08T12:46:51.726Z,27.85
2023-08-08T12:49:21.156Z,27.82
2023-08-08T12:51:53.344Z,27.78
2023-08-08T12:54:22.816Z,27.77
2023-08-08T12:56:52.575Z,27.76
2023-08-08T12:59:22.241Z,27.72
2023-08-08T13:01:52.315Z,27.76
2023-08-08T13:04:22.023Z,27.83
2023-08-08T13:06:52.092Z,27.85
2023-08-08T13:09:21.672Z,27.88
2023-08-08T13:11:51.431Z,27.86
2023-08-08T13:14:20.983Z,27.85
2023-08-08T13:16:50.949Z,27.84
2023-08-08T13:19:22.926Z,27.80
2023-08-08T13:22:14.221Z,27.81
2023-08-08T13:24:44.082Z,27.85
2023-08-08T13:27:13.929Z,27.85
2023-08-08T13:29:44.087Z,27.88
2023-08-08T13:32:13.578Z,27.84
2023-08-08T13:34:43.437Z,27.81
2023-08-08T13:37:13.127Z,27.79
2023-08-08T13:39:42.991Z,27.84
2023-08-08T13:42:12.807Z,27.85
2023-08-08T13:44:42.620Z,27.79
2023-08-08T13:47:14.242Z,27.64
2023-08-08T13:49:43.442Z,27.41
2023-08-08T13:52:13.733Z,27.26
2023-08-08T13:54:43.070Z,27.15
2023-08-08T13:57:14.436Z,27.10
2023-08-08T13:59:44.932Z,27.07
2023-08-08T14:02:14.755Z,26.99
2023-08-08T14:04:44.409Z,26.93
2023-08-08T14:07:13.963Z,26.82
2023-08-08T14:09:43.802Z,26.79
2023-08-08T14:12:13.409Z,26.79
2023-08-08T14:14:43.144Z,26.77
2023-08-08T14:17:12.780Z,26.72
2023-08-08T14:19:42.290Z,26.65
2023-08-08T14:22:12.259Z,26.59
2023-08-08T14:24:41.834Z,26.54
2023-08-08T14:27:11.963Z,26.51
2023-08-08T14:29:41.732Z,26.45
2023-08-08T14:32:12.387Z,26.40
2023-08-08T14:34:42.302Z,26.32
2023-08-08T14:37:12.666Z,26.27
2023-08-08T14:39:42.026Z,26.26
2023-08-08T14:42:11.715Z,26.24
2023-08-08T14:44:41.476Z,26.19
2023-08-08T14:47:11.168Z,26.15
2023-08-08T14:49:41.041Z,26.09
2023-08-08T14:52:10.809Z,26.03
2023-08-08T14:54:40.201Z,26.00
2023-08-08T14:57:10.605Z,25.96
2023-08-08T14:59:40.217Z,25.92
2023-08-08T15:02:10.016Z,25.85
2023-08-08T15:04:40.034Z,25.81
2023-08-08T15:07:09.859Z,25.75
2023-08-08T15:09:40.167Z,25.69
2023-08-08T15:12:11.479Z,25.66
2023-08-08T15:14:40.505Z,25.60
2023-08-08T15:17:10.020Z,25.57
2023-08-08T15:19:40.251Z,25.54
2023-08-08T15:22:09.707Z,25.49
2023-08-08T15:24:39.778Z,25.42
2023-08-08T15:27:09.462Z,25.38
2023-08-08T15:29:39.265Z,25.34
2023-08-08T15:32:09.440Z,25.29
2023-08-08T15:34:38.913Z,25.27
2023-08-08T15:37:08.551Z,25.21
2023-08-08T15:39:38.402Z,25.15
2023-08-08T15:42:08.348Z,25.11
2023-08-08T15:44:37.841Z,25.08
2023-08-08T15:47:09.126Z,25.03
2023-08-08T15:49:39.159Z,25.00
2023-08-08T15:52:08.643Z,24.94
2023-08-08T15:54:38.694Z,24.91
2023-08-08T15:57:08.974Z,24.88
2023-08-08T15:59:39.368Z,24.85
2023-08-08T16:02:09.091Z,24.82
2023-08-08T16:04:38.945Z,24.77
2023-08-08T16:07:08.437Z,24.74
2023-08-08T16:09:38.267Z,24.72
2023-08-08T16:12:07.966Z,24.71
2023-08-08T16:14:37.953Z,24.68
2023-08-08T16:17:08.362Z,24.63
2023-08-08T16:19:38.435Z,24.59
2023-08-08T16:22:07.788Z,24.57
2023-08-08T16:24:37.346Z,24.54
2023-08-08T16:27:07.731Z,24.51
2023-08-08T16:29:37.543Z,24.48
2023-08-08T16:32:07.482Z,24.46
2023-08-08T16:34:36.971Z,24.42
2023-08-08T16:37:09.283Z,24.40
2023-08-08T16:39:38.941Z,24.34
2023-08-08T16:42:09.080Z,24.26
2023-08-08T16:44:38.973Z,24.20
2023-08-08T16:47:08.456Z,24.13
2023-08-08T16:49:38.117Z,24.08
2023-08-08T16:52:08.016Z,24.06
2023-08-08T16:54:38.012Z,24.03
2023-08-08T16:57:07.920Z,23.95
2023-08-08T16:59:37.851Z,23.93
2023-08-08T17:02:07.641Z,23.86
2023-08-08T17:04:37.056Z,23.78
2023-08-08T17:07:07.098Z,23.70
2023-08-08T17:09:36.608Z,23.65
2023-08-08T17:12:07.158Z,23.62
2023-08-08T17:14:36.797Z,23.62
2023-08-08T17:17:06.895Z,23.60
2023-08-08T17:19:36.546Z,23.57
2023-08-08T17:22:06.649Z,23.55
2023-08-08T17:24:40.369Z,23.52
2023-08-08T17:27:10.604Z,23.45
2023-08-08T17:29:40.223Z,23.41
2023-08-08T17:32:10.872Z,23.35
2023-08-08T17:34:40.657Z,23.34
2023-08-08T17:37:10.873Z,23.33
2023-08-08T17:39:40.573Z,23.28
2023-08-08T17:42:10.460Z,23.25
2023-08-08T17:44:40.191Z,23.21
2023-08-08T17:47:11.084Z,23.21
2023-08-08T17:49:41.075Z,23.15
2023-08-08T17:52:10.783Z,23.12
2023-08-08T17:54:40.342Z,23.08
2023-08-08T17:57:09.898Z,23.03
2023-08-08T17:59:39.870Z,22.99
2023-08-08T18:02:09.585Z,22.94
2023-08-08T18:04:39.334Z,22.90
2023-08-08T18:07:09.790Z,22.88
2023-08-08T18:09:39.833Z,22.79
2023-08-08T18:12:09.982Z,22.76
2023-08-08T18:14:40.904Z,22.72
2023-08-08T18:17:10.640Z,22.68
2023-08-08T18:19:40.440Z,22.61
2023-08-08T18:22:10.112Z,22.56
2023-08-08T18:24:39.836Z,22.52
2023-08-08T18:27:10.249Z,22.47
2023-08-08T18:29:39.758Z,22.44
2023-08-08T18:32:10.605Z,22.43
2023-08-08T18:34:40.613Z,22.41
2023-08-08T18:37:10.112Z,22.38
2023-08-08T18:39:39.673Z,22.36
2023-08-08T18:42:09.572Z,22.34
2023-08-08T18:44:39.079Z,22.32
2023-08-08T18:47:09.056Z,22.29
2023-08-08T18:49:38.778Z,22.25
2023-08-08T18:52:09.209Z,22.21
2023-08-08T18:54:38.814Z,22.15
2023-08-08T18:57:08.288Z,22.11
2023-08-08T18:59:38.147Z,22.04
2023-08-08T19:02:07.871Z,22.00
2023-08-08T19:04:37.194Z,21.91
2023-08-08T19:07:07.222Z,21.84
2023-08-08T19:09:36.955Z,21.80
2023-08-08T19:12:11.208Z,21.75
2023-08-08T19:14:41.026Z,21.67
2023-08-08T19:17:10.417Z,21.65
2023-08-08T19:19:40.101Z,21.64
2023-08-08T19:22:09.795Z,21.61
2023-08-08T19:24:39.618Z,21.58
2023-08-08T19:27:09.573Z,21.54
2023-08-08T19:29:39.257Z,21.50
2023-08-08T19:32:09.990Z,21.46
2023-08-08T19:34:39.953Z,21.42
2023-08-08T19:37:09.541Z,21.40
2023-08-08T19:39:39.426Z,21.37
2023-08-08T19:42:09.149Z,21.35
2023-08-08T19:44:39.840Z,21.33
2023-08-08T19:47:09.336Z,21.29
2023-08-08T19:49:39.351Z,21.27
2023-08-08T19:52:08.848Z,21.24
2023-08-08T19:54:39.287Z,21.21
2023-08-08T19:57:09.177Z,21.17
2023-08-08T19:59:39.012Z,21.17
2023-08-08T20:02:09.070Z,21.16
2023-08-08T20:04:38.870Z,21.15
2023-08-08T20:07:08.537Z,21.13
2023-08-08T20:09:38.270Z,21.10
2023-08-08T20:12:08.274Z,21.06
2023-08-08T20:14:38.090Z,21.04
2023-08-08T20:17:07.836Z,21.05
2023-08-08T20:19:37.632Z,21.02
2023-08-08T20:22:07.311Z,20.97
2023-08-08T20:24:37.146Z,20.97
2023-08-08T20:27:07.462Z,20.93
2023-08-08T20:29:37.257Z,20.92
2023-08-08T20:32:07.031Z,20.92
2023-08-08T20:34:36.759Z,20.91
2023-08-08T20:37:07.958Z,20.89
2023-08-08T20:39:37.654Z,20.87
2023-08-08T20:42:07.932Z,20.83
2023-08-08T20:44:38.655Z,20.81
2023-08-08T20:47:08.419Z,20.78
2023-08-08T20:49:37.846Z,20.74
2023-08-08T20:52:07.934Z,20.71
2023-08-08T20:54:37.866Z,20.74
2023-08-08T20:57:07.893Z,20.74
2023-08-08T20:59:39.513Z,20.71
2023-08-08T21:02:10.003Z,20.71
2023-08-08T21:04:39.565Z,20.70
2023-08-08T21:07:14.082Z,20.70
2023-08-08T21:09:43.676Z,20.67
2023-08-08T21:12:13.468Z,20.63
2023-08-08T21:14:43.558Z,20.64
2023-08-08T21:17:13.366Z,20.62
2023-08-08T21:19:43.296Z,20.61
2023-08-08T21:22:12.772Z,20.61
2023-08-08T21:24:42.409Z,20.65
2023-08-08T21:27:16.219Z,20.63
2023-08-08T21:29:48.983Z,20.64
2023-08-08T21:32:18.785Z,20.62
2023-08-08T21:34:48.667Z,20.59
2023-08-08T21:37:19.191Z,20.53
2023-08-08T21:39:48.800Z,20.45
2023-08-08T21:42:19.149Z,20.39
2023-08-08T21:44:48.854Z,20.37
2023-08-08T21:47:20.061Z,20.33
2023-08-08T21:49:49.778Z,20.25
2023-08-08T21:52:19.578Z,20.17
2023-08-08T21:54:49.478Z,20.11
2023-08-08T21:57:18.843Z,20.06
2023-08-08T21:59:48.158Z,19.98
2023-08-08T22:02:17.993Z,19.96
2023-08-08T22:04:47.768Z,19.93
2023-08-08T22:07:17.567Z,19.87
2023-08-08T22:09:47.021Z,19.79
2023-08-08T22:12:16.636Z,19.73
2023-08-08T22:14:46.278Z,19.72
2023-08-08T22:17:16.575Z,19.71
2023-08-08T22:19:46.208Z,19.65
2023-08-08T22:22:15.642Z,19.60
2023-08-08T22:24:45.535Z,19.54
2023-08-08T22:27:15.272Z,19.49
2023-08-08T22:29:45.183Z,19.41
2023-08-08T22:32:14.649Z,19.34
2023-08-08T22:34:45.087Z,19.25
2023-08-08T22:37:15.007Z,19.26
2023-08-08T22:39:44.364Z,19.24
2023-08-08T22:42:14.143Z,19.21
2023-08-08T22:44:43.940Z,19.15
2023-08-08T22:47:13.668Z,19.13
2023-08-08T22:49:43.125Z,19.11
2023-08-08T22:52:13.056Z,19.10
2023-08-08T22:54:42.815Z,19.07
2023-08-08T22:57:12.641Z,19.00
2023-08-08T22:59:42.363Z,18.96
2023-08-08T23:02:12.135Z,18.94
2023-08-08T23:04:41.886Z,18.92
2023-08-08T23:07:11.332Z,18.92
2023-08-08T23:09:41.282Z,18.93
2023-08-08T23:12:11.032Z,18.91
2023-08-08T23:14:40.543Z,18.91
2023-08-08T23:17:10.714Z,18.93
2023-08-08T23:19:40.539Z,18.91
2023-08-08T23:22:10.281Z,18.85
2023-08-08T23:24:40.324Z,18.92
2023-08-08T23:27:10.044Z,18.89
2023-08-08T23:29:39.480Z,18.80
2023-08-08T23:32:09.400Z,18.73
2023-08-08T23:34:39.075Z,18.69
2023-08-08T23:37:19.952Z,18.64
2023-08-08T23:39:50.616Z,18.55
2023-08-08T23:42:20.247Z,18.53
2023-08-08T23:44:49.812Z,18.49
2023-08-08T23:47:19.695Z,18.47
2023-08-08T23:49:49.333Z,18.46
2023-08-08T23:52:18.980Z,18.44
2023-08-08T23:54:48.491Z,18.40
2023-08-08T23:57:18.265Z,18.39
2023-08-08T23:59:48.057Z,18.41
